METAR Data
IDs: Format: Raw Decoded Include TAF

Data at: 0630 UTC 03 Aug 2021

KRBL 030554Z AUTO 31005KT 10SM CLR 23/05 A2998 RMK AO2 SLP147 T02280050 10356 20222 51007
KRBL 030454Z AUTO 00000KT 10SM CLR 27/06 A2997 RMK AO2 SLP145 T02670056
KRBL 030354Z AUTO 00000KT 10SM CLR 28/05 A2996 RMK AO2 SLP143 T02830050
KRBL 030254Z AUTO 16004KT 10SM CLR 33/03 A2996 RMK AO2 SLP140 T03280028 56006
KRBL 030154Z AUTO 17007KT 10SM CLR 34/06 A2996 RMK AO2 SLP139 T03440061
KRBL 030054Z AUTO 17009KT 10SM CLR 34/05 A2996 RMK AO2 SLP142 T03440050
KRBL 022354Z AUTO 16011KT 9SM CLR 35/07 A2997 RMK AO2 SLP145 T03500067 10361 20272 56018
KRBL 022254Z AUTO 14011KT 8SM CLR 36/06 A2999 RMK AO2 SLP150 T03560061
KRBL 022154Z AUTO 15009KT 110V170 10SM CLR 36/06 A3000 RMK AO2 SLP155 T03560061
KRBL 022054Z AUTO VRB06KT 10SM CLR 33/04 A3003 RMK AO2 SLP163 T03330044 58015
KRBL 021954Z AUTO 15007KT 10SM CLR 32/06 A3005 RMK AO2 SLP170 T03170061
KRBL 021854Z AUTO VRB05KT 10SM CLR 30/09 A3006 RMK AO2 SLP175 T03000089
KRBL 021754Z AUTO 18007KT 10SM CLR 27/09 A3007 RMK AO2 SLP179 T02720089 10278 20200 58002
KRBL 021654Z AUTO VRB04KT 10SM CLR 25/09 A3008 RMK AO2 SLP180 T02500089
KRBL 021554Z AUTO 14007KT 10SM CLR 23/09 A3008 RMK AO2 SLP182 T02280089
KRBL 021454Z AUTO 16007KT 10SM CLR 22/09 A3008 RMK AO2 SLP181 T02170094 51018
KRBL 021354Z AUTO 16009KT 10SM CLR 21/09 A3006 RMK AO2 SLP175 T02110089
KRBL 021254Z AUTO 15005KT 10SM CLR 21/09 A3004 RMK AO2 SLP168 T02110094
KRBL 021154Z AUTO 13006KT 10SM CLR 22/09 A3003 RMK AO2 SLP162 T02220094 10300 20222 51013
KRBL 021054Z AUTO 15006KT 10SM CLR 23/10 A3002 RMK AO2 SLP159 T02330100
KRBL 020954Z AUTO 16006KT 10SM CLR 24/11 A3000 RMK AO2 SLP154 T02390106
KRBL 020854Z AUTO 20008KT 10SM CLR 26/10 A2999 RMK AO2 SLP149 T02560100 53010
KRBL 020754Z AUTO 18006KT 10SM CLR 26/11 A2997 RMK AO2 SLP143 T02610111 404000206
KRBL 020654Z AUTO 18006KT 10SM CLR 27/13 A2997 RMK AO2 SLP143 T02720133
KRBL 020554Z AUTO 17007KT 10SM CLR 29/13 A2996 RMK AO2 SLP139 T02940133 10400 20294 51022
KRBL 020454Z AUTO 11003KT 10SM CLR 31/13 A2994 RMK AO2 SLP133 T03110128
KRBL 020354Z AUTO 19004KT 10SM CLR 32/11 A2991 RMK AO2 SLP123 T03220111
KRBL 020254Z AUTO 16007KT 10SM CLR 36/11 A2989 RMK AO2 SLP116 T03560106 55006
KRBL 020154Z AUTO 14009KT 10SM CLR 38/09 A2988 RMK AO2 SLP114 T03830089
KRBL 020054Z AUTO 14011KT 10SM CLR 40/06 A2989 RMK AO2 SLP118 T04000061
KRBL 012354Z AUTO 15007KT 10SM CLR 39/08 A2991 RMK AO2 SLP122 T03940078 10400 20317 56018
KRBL 012254Z AUTO 16011KT 10SM CLR 39/09 A2992 RMK AO2 SLP127 T03890089
KRBL 012154Z AUTO 17008KT 10SM CLR 38/08 A2994 RMK AO2 SLP134 T03830083
KRBL 012054Z AUTO 13006KT 10SM CLR 38/07 A2996 RMK AO2 SLP141 T03780067 56016
KRBL 011954Z AUTO 18004KT 10SM CLR 36/07 A2997 RMK AO2 SLP145 T03610072
KRBL 011854Z AUTO 00000KT 10SM CLR 34/09 A2999 RMK AO2 SLP152 T03440094